DLH9TK EDDS-EDDF
Flight info
| Callsign | DLH9TK |
|---|---|
| Flight time | 0h 30m |
| Altitude | 22000 |
| Route | ETASA2H/07 ETASA T163 SPESA SPESA5B |
| Aircraft | A319/M-SDE3FGHIRWY/LB1 |
Departure
| Time | 2026-04-15 15:52 |
|---|---|
| Airport | Stuttgart Airport (EDDS) |
Arrival
| Time | 2026-04-15 16:22 |
|---|---|
| Airport | Frankfurt Main Airport (EDDF) |
| Time | Latitude | Longitude | Altitude | Speed | Heading |
|---|---|---|---|---|---|
| 2026-04-15 15:30 | 48.68958 | 9.19715 | 1284 ft | 0 kts | 344° |
| 2026-04-15 15:44 | 48.68945 | 9.19721 | 1284 ft | 2 kts | 343° |
| 2026-04-15 15:45 | 48.68931 | 9.19727 | 1284 ft | 2 kts | 344° |
| 2026-04-15 15:45 | 48.68916 | 9.19733 | 1284 ft | 2 kts | 343° |
| 2026-04-15 15:45 | 48.68902 | 9.19739 | 1284 ft | 2 kts | 344° |
| 2026-04-15 15:45 | 48.68888 | 9.19746 | 1284 ft | 1 kts | 355° |
| 2026-04-15 15:46 | 48.68875 | 9.19738 | 1284 ft | 2 kts | 51° |
| 2026-04-15 15:46 | 48.68871 | 9.19728 | 1284 ft | 0 kts | 78° |
| 2026-04-15 15:46 | 48.68870 | 9.19719 | 1284 ft | 0 kts | 74° |
| 2026-04-15 15:49 | 48.68870 | 9.19721 | 1284 ft | 0 kts | 74° |
| 2026-04-15 15:49 | 48.68873 | 9.19737 | 1284 ft | 2 kts | 74° |
| 2026-04-15 15:50 | 48.68882 | 9.19783 | 1284 ft | 6 kts | 76° |
| 2026-04-15 15:50 | 48.68862 | 9.19853 | 1284 ft | 9 kts | 132° |
| 2026-04-15 15:50 | 48.68811 | 9.19932 | 1284 ft | 11 kts | 144° |
| 2026-04-15 15:50 | 48.68723 | 9.19980 | 1284 ft | 14 kts | 163° |
| 2026-04-15 15:51 | 48.68620 | 9.20031 | 1284 ft | 16 kts | 152° |
| 2026-04-15 15:51 | 48.68617 | 9.20228 | 1284 ft | 41 kts | 73° |
| 2026-04-15 15:51 | 48.68776 | 9.21071 | 1284 ft | 120 kts | 73° |
| 2026-04-15 15:51 | 48.69062 | 9.22558 | 1506 ft | 160 kts | 74° |
| 2026-04-15 15:52 | 48.69368 | 9.24127 | 2286 ft | 159 kts | 72° |
| 2026-04-15 15:52 | 48.69688 | 9.25670 | 3141 ft | 156 kts | 71° |
| 2026-04-15 15:52 | 48.70006 | 9.27214 | 3865 ft | 162 kts | 74° |
| 2026-04-15 15:52 | 48.70308 | 9.28932 | 4441 ft | 178 kts | 75° |
| 2026-04-15 15:53 | 48.70643 | 9.30828 | 5036 ft | 195 kts | 75° |
| 2026-04-15 15:53 | 48.71020 | 9.32885 | 5633 ft | 212 kts | 75° |
| 2026-04-15 15:53 | 48.71436 | 9.35097 | 6215 ft | 233 kts | 75° |
| 2026-04-15 15:53 | 48.71903 | 9.37550 | 6868 ft | 252 kts | 74° |
| 2026-04-15 15:54 | 48.72439 | 9.40147 | 7508 ft | 271 kts | 66° |
| 2026-04-15 15:54 | 48.73621 | 9.42394 | 8233 ft | 285 kts | 34° |
| 2026-04-15 15:54 | 48.75441 | 9.43452 | 9192 ft | 288 kts | 5° |
| 2026-04-15 15:54 | 48.77426 | 9.43426 | 10198 ft | 289 kts | 352° |
| 2026-04-15 15:55 | 48.79397 | 9.42763 | 11012 ft | 297 kts | 340° |
| 2026-04-15 15:55 | 48.81336 | 9.41493 | 11553 ft | 314 kts | 333° |
| 2026-04-15 15:55 | 48.83353 | 9.39969 | 12041 ft | 333 kts | 332° |
| 2026-04-15 15:55 | 48.85474 | 9.38356 | 12475 ft | 351 kts | 333° |
| 2026-04-15 15:56 | 48.87698 | 9.36687 | 13073 ft | 362 kts | 333° |
| 2026-04-15 15:56 | 48.89939 | 9.35025 | 13879 ft | 366 kts | 333° |
| 2026-04-15 15:56 | 48.92224 | 9.33330 | 14672 ft | 369 kts | 333° |
| 2026-04-15 15:56 | 48.94530 | 9.31585 | 15413 ft | 374 kts | 333° |
| 2026-04-15 15:57 | 48.96875 | 9.29804 | 16133 ft | 378 kts | 332° |
| 2026-04-15 15:57 | 48.99213 | 9.28027 | 16827 ft | 382 kts | 332° |
| 2026-04-15 15:57 | 49.01599 | 9.26211 | 17499 ft | 386 kts | 332° |
| 2026-04-15 15:57 | 49.03999 | 9.24383 | 18147 ft | 390 kts | 332° |
| 2026-04-15 15:58 | 49.06426 | 9.22532 | 18798 ft | 393 kts | 332° |
| 2026-04-15 15:58 | 49.08881 | 9.20656 | 19445 ft | 396 kts | 332° |
| 2026-04-15 15:58 | 49.11347 | 9.18769 | 20077 ft | 399 kts | 332° |
| 2026-04-15 15:58 | 49.13838 | 9.16863 | 20689 ft | 402 kts | 332° |
| 2026-04-15 15:59 | 49.16279 | 9.15042 | 21271 ft | 405 kts | 335° |
| 2026-04-15 15:59 | 49.19000 | 9.13740 | 21824 ft | 411 kts | 347° |
| 2026-04-15 15:59 | 49.21836 | 9.13268 | 22131 ft | 415 kts | 357° |
| 2026-04-15 15:59 | 49.24730 | 9.13513 | 22093 ft | 416 kts | 3° |
| 2026-04-15 16:00 | 49.27597 | 9.13956 | 21687 ft | 414 kts | 4° |
| 2026-04-15 16:00 | 49.30454 | 9.14411 | 21211 ft | 410 kts | 4° |
| 2026-04-15 16:00 | 49.33310 | 9.14842 | 20733 ft | 408 kts | 4° |
| 2026-04-15 16:00 | 49.36115 | 9.15252 | 20259 ft | 405 kts | 4° |
| 2026-04-15 16:01 | 49.38908 | 9.15656 | 19767 ft | 403 kts | 3° |
| 2026-04-15 16:01 | 49.41685 | 9.16057 | 19273 ft | 400 kts | 3° |
| 2026-04-15 16:01 | 49.44433 | 9.16452 | 18778 ft | 398 kts | 3° |
| 2026-04-15 16:01 | 49.47192 | 9.16849 | 18281 ft | 395 kts | 3° |
| 2026-04-15 16:02 | 49.49911 | 9.17240 | 17797 ft | 393 kts | 3° |
| 2026-04-15 16:02 | 49.52607 | 9.17628 | 17311 ft | 390 kts | 3° |
| 2026-04-15 16:02 | 49.55292 | 9.18016 | 16821 ft | 387 kts | 4° |
| 2026-04-15 16:02 | 49.57961 | 9.18399 | 16329 ft | 384 kts | 4° |
| 2026-04-15 16:03 | 49.60587 | 9.18779 | 15840 ft | 381 kts | 4° |
| 2026-04-15 16:03 | 49.63226 | 9.19190 | 15341 ft | 378 kts | 7° |
| 2026-04-15 16:03 | 49.65733 | 9.20354 | 14841 ft | 378 kts | 24° |
| 2026-04-15 16:03 | 49.67921 | 9.22584 | 14345 ft | 378 kts | 40° |
| 2026-04-15 16:04 | 49.69767 | 9.25444 | 13856 ft | 376 kts | 45° |
| 2026-04-15 16:04 | 49.71595 | 9.28336 | 13349 ft | 372 kts | 39° |
| 2026-04-15 16:04 | 49.73720 | 9.30461 | 12851 ft | 367 kts | 24° |
| 2026-04-15 16:04 | 49.76118 | 9.31688 | 12358 ft | 362 kts | 11° |
| 2026-04-15 16:05 | 49.78561 | 9.32479 | 12122 ft | 360 kts | 9° |
| 2026-04-15 16:05 | 49.81025 | 9.33204 | 12141 ft | 362 kts | 7° |
| 2026-04-15 16:05 | 49.83515 | 9.33112 | 12136 ft | 358 kts | 344° |
| 2026-04-15 16:05 | 49.85725 | 9.31452 | 12146 ft | 355 kts | 321° |
| 2026-04-15 16:06 | 49.87339 | 9.28585 | 12147 ft | 353 kts | 298° |
| 2026-04-15 16:06 | 49.88197 | 9.25022 | 12153 ft | 352 kts | 285° |
| 2026-04-15 16:06 | 49.88850 | 9.21391 | 12150 ft | 352 kts | 285° |
| 2026-04-15 16:06 | 49.89512 | 9.17762 | 12148 ft | 352 kts | 285° |
| 2026-04-15 16:07 | 49.90189 | 9.14118 | 12147 ft | 353 kts | 285° |
| 2026-04-15 16:07 | 49.90879 | 9.10449 | 12147 ft | 353 kts | 286° |
| 2026-04-15 16:07 | 49.92260 | 9.03157 | 12143 ft | 352 kts | 286° |
| 2026-04-15 16:08 | 49.93003 | 8.99572 | 11901 ft | 351 kts | 292° |
| 2026-04-15 16:08 | 49.94266 | 8.96353 | 11445 ft | 347 kts | 309° |
| 2026-04-15 16:08 | 49.96027 | 8.93858 | 10798 ft | 349 kts | 324° |
| 2026-04-15 16:08 | 49.98209 | 8.92221 | 10291 ft | 345 kts | 342° |
| 2026-04-15 16:09 | 50.00503 | 8.91631 | 10083 ft | 327 kts | 358° |
| 2026-04-15 16:09 | 50.02693 | 8.91986 | 9780 ft | 304 kts | 13° |
| 2026-04-15 16:09 | 50.04584 | 8.93101 | 9437 ft | 287 kts | 27° |
| 2026-04-15 16:09 | 50.06171 | 8.94808 | 9049 ft | 273 kts | 41° |
| 2026-04-15 16:10 | 50.07392 | 8.96964 | 8652 ft | 261 kts | 56° |
| 2026-04-15 16:10 | 50.08216 | 8.99412 | 8255 ft | 252 kts | 69° |
| 2026-04-15 16:10 | 50.08666 | 9.02041 | 7858 ft | 251 kts | 84° |
| 2026-04-15 16:10 | 50.08706 | 9.04736 | 7469 ft | 252 kts | 92° |
| 2026-04-15 16:11 | 50.08630 | 9.07472 | 7076 ft | 252 kts | 93° |
| 2026-04-15 16:11 | 50.08534 | 9.10188 | 6675 ft | 249 kts | 94° |
| 2026-04-15 16:11 | 50.08439 | 9.12845 | 6279 ft | 243 kts | 92° |
| 2026-04-15 16:11 | 50.08551 | 9.15425 | 5923 ft | 243 kts | 78° |
| 2026-04-15 16:12 | 50.09057 | 9.17900 | 5579 ft | 240 kts | 69° |
| 2026-04-15 16:12 | 50.09649 | 9.20306 | 5230 ft | 236 kts | 70° |
| 2026-04-15 16:12 | 50.10416 | 9.22552 | 4867 ft | 236 kts | 47° |
| 2026-04-15 16:12 | 50.11791 | 9.23892 | 4516 ft | 235 kts | 14° |
| 2026-04-15 16:13 | 50.13329 | 9.23912 | 4182 ft | 235 kts | 343° |
| 2026-04-15 16:13 | 50.14654 | 9.22661 | 3999 ft | 233 kts | 310° |
| 2026-04-15 16:13 | 50.15425 | 9.20412 | 4002 ft | 234 kts | 288° |
| 2026-04-15 16:13 | 50.15879 | 9.18003 | 3999 ft | 234 kts | 284° |
| 2026-04-15 16:14 | 50.16268 | 9.15603 | 3996 ft | 233 kts | 280° |
| 2026-04-15 16:14 | 50.16394 | 9.13107 | 3992 ft | 233 kts | 267° |
| 2026-04-15 16:14 | 50.16155 | 9.10594 | 3992 ft | 233 kts | 255° |
| 2026-04-15 16:14 | 50.15710 | 9.08137 | 3992 ft | 233 kts | 253° |
| 2026-04-15 16:15 | 50.15246 | 9.05760 | 3992 ft | 233 kts | 252° |
| 2026-04-15 16:15 | 50.14763 | 9.03474 | 3993 ft | 233 kts | 250° |
| 2026-04-15 16:15 | 50.14214 | 9.01059 | 3991 ft | 233 kts | 249° |
| 2026-04-15 16:15 | 50.13719 | 8.98954 | 3991 ft | 234 kts | 249° |
| 2026-04-15 16:16 | 50.13155 | 8.96602 | 3992 ft | 234 kts | 248° |
| 2026-04-15 16:16 | 50.12580 | 8.94226 | 3992 ft | 234 kts | 249° |
| 2026-04-15 16:16 | 50.12000 | 8.91839 | 3989 ft | 230 kts | 249° |
| 2026-04-15 16:16 | 50.11455 | 8.89594 | 3982 ft | 216 kts | 249° |
| 2026-04-15 16:17 | 50.10943 | 8.87483 | 3973 ft | 203 kts | 249° |
| 2026-04-15 16:17 | 50.10455 | 8.85474 | 3876 ft | 194 kts | 249° |
| 2026-04-15 16:17 | 50.09977 | 8.83500 | 3629 ft | 194 kts | 249° |
| 2026-04-15 16:17 | 50.09503 | 8.81544 | 3372 ft | 194 kts | 249° |
| 2026-04-15 16:18 | 50.09026 | 8.79568 | 3115 ft | 195 kts | 249° |
| 2026-04-15 16:18 | 50.08561 | 8.77638 | 2932 ft | 190 kts | 249° |
| 2026-04-15 16:18 | 50.08094 | 8.75698 | 2660 ft | 189 kts | 249° |
| 2026-04-15 16:18 | 50.07715 | 8.73774 | 2402 ft | 187 kts | 257° |
| 2026-04-15 16:19 | 50.07469 | 8.71858 | 2213 ft | 172 kts | 257° |
| 2026-04-15 16:19 | 50.07182 | 8.70129 | 1951 ft | 159 kts | 252° |
| 2026-04-15 16:19 | 50.06859 | 8.68566 | 1720 ft | 145 kts | 249° |
| 2026-04-15 16:19 | 50.06523 | 8.67148 | 1491 ft | 137 kts | 248° |
| 2026-04-15 16:20 | 50.06207 | 8.65785 | 1292 ft | 132 kts | 248° |
| 2026-04-15 16:20 | 50.05893 | 8.64457 | 1132 ft | 131 kts | 248° |
| 2026-04-15 16:20 | 50.05578 | 8.63132 | 970 ft | 130 kts | 249° |
| 2026-04-15 16:20 | 50.05257 | 8.61827 | 815 ft | 129 kts | 250° |
| 2026-04-15 16:21 | 50.04951 | 8.60532 | 665 ft | 126 kts | 250° |
| 2026-04-15 16:21 | 50.04644 | 8.59238 | 506 ft | 128 kts | 250° |
| 2026-04-15 16:21 | 50.04340 | 8.57954 | 373 ft | 119 kts | 248° |
| 2026-04-15 16:21 | 50.04098 | 8.56958 | 361 ft | 72 kts | 250° |
| 2026-04-15 16:22 | 50.03992 | 8.56456 | 355 ft | 34 kts | 270° |
| 2026-04-15 16:22 | 50.04014 | 8.56209 | 355 ft | 9 kts | 280° |
| 2026-04-15 16:22 | 50.04022 | 8.56161 | 355 ft | 3 kts | 291° |
| 2026-04-15 16:22 | 50.04027 | 8.56133 | 355 ft | 0 kts | 280° |
| 2026-04-15 16:23 | 50.04028 | 8.56121 | 355 ft | 1 kts | 279° |
| 2026-04-15 16:23 | 50.04029 | 8.56115 | 355 ft | 0 kts | 278° |
| 2026-04-15 16:24 | 50.04029 | 8.56114 | 355 ft | 0 kts | 278° |
| 2026-04-15 16:24 | 50.04031 | 8.56097 | 355 ft | 3 kts | 291° |
| 2026-04-15 16:25 | 50.04062 | 8.56078 | 355 ft | 7 kts | 14° |
| 2026-04-15 16:25 | 50.04107 | 8.56176 | 356 ft | 14 kts | 71° |
| 2026-04-15 16:25 | 50.04146 | 8.56344 | 358 ft | 17 kts | 70° |
| 2026-04-15 16:25 | 50.04188 | 8.56520 | 360 ft | 16 kts | 69° |
| 2026-04-15 16:26 | 50.04229 | 8.56685 | 363 ft | 16 kts | 69° |
| 2026-04-15 16:26 | 50.04291 | 8.56810 | 365 ft | 15 kts | 11° |
| 2026-04-15 16:26 | 50.04391 | 8.56836 | 368 ft | 13 kts | 11° |
| 2026-04-15 16:26 | 50.04485 | 8.56864 | 369 ft | 13 kts | 12° |
| 2026-04-15 16:27 | 50.04580 | 8.56898 | 371 ft | 13 kts | 14° |
| 2026-04-15 16:27 | 50.04670 | 8.56945 | 373 ft | 13 kts | 23° |
| 2026-04-15 16:27 | 50.04755 | 8.57004 | 374 ft | 13 kts | 25° |
| 2026-04-15 16:27 | 50.04834 | 8.57059 | 376 ft | 7 kts | 24° |
| 2026-04-15 16:28 | 50.04836 | 8.57125 | 376 ft | 7 kts | 117° |
| 2026-04-15 16:28 | 50.04822 | 8.57169 | 376 ft | 4 kts | 115° |
| 2026-04-15 16:28 | 50.04818 | 8.57182 | 376 ft | 0 kts | 115° |